sensor_id;sensor_type;location;lat;lon;timestamp;P1;durP1;ratioP1;P2;durP2;ratioP2
23670;SDS011;12012;51.998;7.614;2022-12-18T00:01:33;86.78;;;34.17;;
23670;SDS011;12012;51.998;7.614;2022-12-18T00:04:01;74.22;;;31.45;;
23670;SDS011;12012;51.998;7.614;2022-12-18T00:06:31;59.38;;;24.60;;
23670;SDS011;12012;51.998;7.614;2022-12-18T00:09:00;82.32;;;33.72;;
23670;SDS011;12012;51.998;7.614;2022-12-18T00:11:28;84.38;;;33.35;;
23670;SDS011;12012;51.998;7.614;2022-12-18T00:13:55;92.65;;;34.38;;
23670;SDS011;12012;51.998;7.614;2022-12-18T00:16:23;94.78;;;36.03;;
23670;SDS011;12012;51.998;7.614;2022-12-18T00:18:52;97.88;;;36.50;;
23670;SDS011;12012;51.998;7.614;2022-12-18T00:21:19;87.68;;;35.40;;
23670;SDS011;12012;51.998;7.614;2022-12-18T00:23:45;88.55;;;36.13;;
23670;SDS011;12012;51.998;7.614;2022-12-18T00:26:16;94.00;;;35.33;;
23670;SDS011;12012;51.998;7.614;2022-12-18T00:28:43;78.47;;;31.40;;
23670;SDS011;12012;51.998;7.614;2022-12-18T00:31:11;86.80;;;33.75;;
23670;SDS011;12012;51.998;7.614;2022-12-18T00:33:39;79.72;;;31.17;;
23670;SDS011;12012;51.998;7.614;2022-12-18T00:36:05;85.88;;;35.47;;
23670;SDS011;12012;51.998;7.614;2022-12-18T00:38:36;93.65;;;37.60;;
23670;SDS011;12012;51.998;7.614;2022-12-18T00:41:02;94.07;;;36.60;;
23670;SDS011;12012;51.998;7.614;2022-12-18T00:43:28;93.00;;;36.95;;
23670;SDS011;12012;51.998;7.614;2022-12-18T00:45:53;86.57;;;34.50;;
23670;SDS011;12012;51.998;7.614;2022-12-18T00:48:19;88.95;;;34.90;;
23670;SDS011;12012;51.998;7.614;2022-12-18T00:50:45;97.35;;;37.97;;
23670;SDS011;12012;51.998;7.614;2022-12-18T00:53:12;94.47;;;37.10;;
23670;SDS011;12012;51.998;7.614;2022-12-18T00:55:41;97.68;;;37.65;;
23670;SDS011;12012;51.998;7.614;2022-12-18T00:58:07;83.88;;;33.60;;
23670;SDS011;12012;51.998;7.614;2022-12-18T01:00:34;93.75;;;37.75;;
23670;SDS011;12012;51.998;7.614;2022-12-18T01:02:59;97.28;;;37.10;;
23670;SDS011;12012;51.998;7.614;2022-12-18T01:05:25;76.35;;;32.33;;
23670;SDS011;12012;51.998;7.614;2022-12-18T01:07:51;95.82;;;35.72;;
23670;SDS011;12012;51.998;7.614;2022-12-18T01:10:16;91.20;;;36.00;;
23670;SDS011;12012;51.998;7.614;2022-12-18T01:12:42;81.32;;;35.50;;
23670;SDS011;12012;51.998;7.614;2022-12-18T01:15:09;93.10;;;37.65;;
23670;SDS011;12012;51.998;7.614;2022-12-18T01:17:36;85.57;;;34.42;;
23670;SDS011;12012;51.998;7.614;2022-12-18T01:20:02;84.40;;;35.45;;
23670;SDS011;12012;51.998;7.614;2022-12-18T01:22:28;95.97;;;36.67;;
23670;SDS011;12012;51.998;7.614;2022-12-18T01:24:53;90.70;;;36.38;;
23670;SDS011;12012;51.998;7.614;2022-12-18T01:27:19;86.25;;;35.10;;
23670;SDS011;12012;51.998;7.614;2022-12-18T01:29:45;103.93;;;36.40;;
23670;SDS011;12012;51.998;7.614;2022-12-18T01:32:10;83.93;;;35.08;;
23670;SDS011;12012;51.998;7.614;2022-12-18T01:34:36;81.35;;;32.10;;
23670;SDS011;12012;51.998;7.614;2022-12-18T01:37:03;90.20;;;35.70;;
23670;SDS011;12012;51.998;7.614;2022-12-18T01:39:29;84.07;;;35.10;;
23670;SDS011;12012;51.998;7.614;2022-12-18T01:41:56;82.25;;;34.50;;
23670;SDS011;12012;51.998;7.614;2022-12-18T01:52:47;78.15;;;32.53;;
23670;SDS011;12012;51.998;7.614;2022-12-18T01:55:17;91.05;;;36.05;;
23670;SDS011;12012;51.998;7.614;2022-12-18T01:57:44;80.00;;;34.08;;
23670;SDS011;12012;51.998;7.614;2022-12-18T02:00:14;88.00;;;35.60;;
23670;SDS011;12012;51.998;7.614;2022-12-18T02:02:44;87.35;;;36.38;;
23670;SDS011;12012;51.998;7.614;2022-12-18T02:05:11;94.72;;;36.55;;
23670;SDS011;12012;51.998;7.614;2022-12-18T02:10:40;89.95;;;33.80;;
23670;SDS011;12012;51.998;7.614;2022-12-18T02:16:19;90.00;;;34.28;;
23670;SDS011;12012;51.998;7.614;2022-12-18T02:18:51;88.43;;;35.30;;
23670;SDS011;12012;51.998;7.614;2022-12-18T02:26:55;89.57;;;34.22;;
23670;SDS011;12012;51.998;7.614;2022-12-18T02:29:26;78.72;;;34.00;;
23670;SDS011;12012;51.998;7.614;2022-12-18T02:32:02;78.05;;;34.65;;
23670;SDS011;12012;51.998;7.614;2022-12-18T02:34:34;89.95;;;35.60;;
23670;SDS011;12012;51.998;7.614;2022-12-18T02:37:03;81.07;;;34.83;;
23670;SDS011;12012;51.998;7.614;2022-12-18T02:39:33;89.13;;;35.92;;
23670;SDS011;12012;51.998;7.614;2022-12-18T02:42:00;73.47;;;31.63;;
23670;SDS011;12012;51.998;7.614;2022-12-18T02:44:33;84.93;;;34.33;;
23670;SDS011;12012;51.998;7.614;2022-12-18T02:47:10;72.93;;;32.25;;
23670;SDS011;12012;51.998;7.614;2022-12-18T02:49:44;82.85;;;34.45;;
23670;SDS011;12012;51.998;7.614;2022-12-18T02:57:36;78.72;;;32.25;;
23670;SDS011;12012;51.998;7.614;2022-12-18T03:05:15;76.80;;;33.90;;
23670;SDS011;12012;51.998;7.614;2022-12-18T03:07:57;71.05;;;31.48;;
23670;SDS011;12012;51.998;7.614;2022-12-18T03:10:28;80.05;;;32.70;;
23670;SDS011;12012;51.998;7.614;2022-12-18T03:13:06;73.00;;;32.40;;
23670;SDS011;12012;51.998;7.614;2022-12-18T03:15:39;73.72;;;31.40;;
23670;SDS011;12012;51.998;7.614;2022-12-18T03:18:11;79.63;;;34.17;;
23670;SDS011;12012;51.998;7.614;2022-12-18T03:20:43;82.50;;;33.72;;
23670;SDS011;12012;51.998;7.614;2022-12-18T03:23:12;83.38;;;34.22;;
23670;SDS011;12012;51.998;7.614;2022-12-18T03:25:44;76.35;;;33.45;;
23670;SDS011;12012;51.998;7.614;2022-12-18T03:28:12;79.80;;;33.35;;
23670;SDS011;12012;51.998;7.614;2022-12-18T03:30:41;83.97;;;34.35;;
23670;SDS011;12012;51.998;7.614;2022-12-18T03:33:11;80.25;;;34.50;;
23670;SDS011;12012;51.998;7.614;2022-12-18T03:35:58;75.82;;;31.85;;
23670;SDS011;12012;51.998;7.614;2022-12-18T03:38:23;76.53;;;33.97;;
23670;SDS011;12012;51.998;7.614;2022-12-18T03:43:53;83.38;;;34.38;;
23670;SDS011;12012;51.998;7.614;2022-12-18T03:49:25;74.47;;;30.98;;
23670;SDS011;12012;51.998;7.614;2022-12-18T03:55:05;70.05;;;30.25;;
23670;SDS011;12012;51.998;7.614;2022-12-18T03:57:32;71.78;;;30.10;;
23670;SDS011;12012;51.998;7.614;2022-12-18T04:00:03;74.40;;;31.38;;
23670;SDS011;12012;51.998;7.614;2022-12-18T04:05:17;70.60;;;32.15;;
23670;SDS011;12012;51.998;7.614;2022-12-18T04:07:45;69.85;;;30.25;;
23670;SDS011;12012;51.998;7.614;2022-12-18T04:10:12;73.75;;;30.25;;
23670;SDS011;12012;51.998;7.614;2022-12-18T04:12:40;71.20;;;31.63;;
23670;SDS011;12012;51.998;7.614;2022-12-18T04:15:06;72.22;;;30.63;;
23670;SDS011;12012;51.998;7.614;2022-12-18T04:17:32;71.80;;;31.50;;
23670;SDS011;12012;51.998;7.614;2022-12-18T04:19:58;69.60;;;28.88;;
23670;SDS011;12012;51.998;7.614;2022-12-18T04:22:23;64.80;;;29.13;;
23670;SDS011;12012;51.998;7.614;2022-12-18T04:24:49;70.28;;;30.38;;
23670;SDS011;12012;51.998;7.614;2022-12-18T04:27:14;68.18;;;28.30;;
23670;SDS011;12012;51.998;7.614;2022-12-18T04:29:40;73.32;;;27.67;;
23670;SDS011;12012;51.998;7.614;2022-12-18T04:32:05;73.80;;;28.58;;
23670;SDS011;12012;51.998;7.614;2022-12-18T04:34:31;65.85;;;28.13;;
23670;SDS011;12012;51.998;7.614;2022-12-18T04:36:57;70.05;;;29.75;;
23670;SDS011;12012;51.998;7.614;2022-12-18T04:39:23;68.28;;;27.80;;
23670;SDS011;12012;51.998;7.614;2022-12-18T04:41:48;64.20;;;28.75;;
23670;SDS011;12012;51.998;7.614;2022-12-18T04:44:14;58.17;;;27.80;;
23670;SDS011;12012;51.998;7.614;2022-12-18T04:46:39;67.22;;;30.33;;
23670;SDS011;12012;51.998;7.614;2022-12-18T04:49:05;61.60;;;26.55;;
23670;SDS011;12012;51.998;7.614;2022-12-18T04:51:31;69.22;;;29.75;;
23670;SDS011;12012;51.998;7.614;2022-12-18T04:53:56;58.83;;;26.67;;
23670;SDS011;12012;51.998;7.614;2022-12-18T04:56:22;69.55;;;29.88;;
23670;SDS011;12012;51.998;7.614;2022-12-18T04:58:48;56.03;;;27.00;;
23670;SDS011;12012;51.998;7.614;2022-12-18T05:01:14;66.25;;;28.00;;
23670;SDS011;12012;51.998;7.614;2022-12-18T05:03:41;56.97;;;26.00;;
23670;SDS011;12012;51.998;7.614;2022-12-18T05:06:06;62.72;;;26.20;;
23670;SDS011;12012;51.998;7.614;2022-12-18T05:08:32;64.30;;;26.58;;
23670;SDS011;12012;51.998;7.614;2022-12-18T05:10:59;64.65;;;26.88;;
23670;SDS011;12012;51.998;7.614;2022-12-18T05:13:26;58.60;;;26.02;;
23670;SDS011;12012;51.998;7.614;2022-12-18T05:15:52;66.70;;;28.95;;
23670;SDS011;12012;51.998;7.614;2022-12-18T05:18:19;67.15;;;27.67;;
23670;SDS011;12012;51.998;7.614;2022-12-18T05:20:44;56.67;;;26.83;;
23670;SDS011;12012;51.998;7.614;2022-12-18T05:23:10;63.78;;;26.42;;
23670;SDS011;12012;51.998;7.614;2022-12-18T05:25:35;62.15;;;25.42;;
23670;SDS011;12012;51.998;7.614;2022-12-18T05:28:01;60.97;;;26.35;;
23670;SDS011;12012;51.998;7.614;2022-12-18T05:30:27;59.33;;;25.23;;
23670;SDS011;12012;51.998;7.614;2022-12-18T05:32:52;55.53;;;24.58;;
23670;SDS011;12012;51.998;7.614;2022-12-18T05:35:18;56.70;;;24.95;;
23670;SDS011;12012;51.998;7.614;2022-12-18T05:37:44;60.97;;;26.02;;
23670;SDS011;12012;51.998;7.614;2022-12-18T05:40:10;54.75;;;24.63;;
23670;SDS011;12012;51.998;7.614;2022-12-18T05:42:36;58.28;;;25.08;;
23670;SDS011;12012;51.998;7.614;2022-12-18T05:45:02;58.78;;;24.52;;
23670;SDS011;12012;51.998;7.614;2022-12-18T05:47:28;61.33;;;26.52;;
23670;SDS011;12012;51.998;7.614;2022-12-18T05:49:53;56.97;;;24.30;;
23670;SDS011;12012;51.998;7.614;2022-12-18T05:52:19;60.30;;;26.05;;
23670;SDS011;12012;51.998;7.614;2022-12-18T05:54:45;60.95;;;26.30;;
23670;SDS011;12012;51.998;7.614;2022-12-18T05:57:11;52.83;;;23.83;;
23670;SDS011;12012;51.998;7.614;2022-12-18T05:59:36;50.00;;;23.02;;
23670;SDS011;12012;51.998;7.614;2022-12-18T06:02:02;60.20;;;26.58;;
23670;SDS011;12012;51.998;7.614;2022-12-18T06:04:31;55.33;;;25.45;;
23670;SDS011;12012;51.998;7.614;2022-12-18T06:06:56;63.25;;;27.23;;
23670;SDS011;12012;51.998;7.614;2022-12-18T06:09:22;64.07;;;28.25;;
23670;SDS011;12012;51.998;7.614;2022-12-18T06:11:48;57.95;;;25.73;;
23670;SDS011;12012;51.998;7.614;2022-12-18T06:14:15;54.85;;;26.77;;
23670;SDS011;12012;51.998;7.614;2022-12-18T06:16:42;55.22;;;25.05;;
23670;SDS011;12012;51.998;7.614;2022-12-18T06:19:07;58.65;;;25.98;;
23670;SDS011;12012;51.998;7.614;2022-12-18T06:21:39;53.33;;;25.73;;
23670;SDS011;12012;51.998;7.614;2022-12-18T06:24:04;65.45;;;29.92;;
23670;SDS011;12012;51.998;7.614;2022-12-18T06:26:30;176.48;;;62.03;;
23670;SDS011;12012;51.998;7.614;2022-12-18T06:28:56;195.77;;;69.30;;
23670;SDS011;12012;51.998;7.614;2022-12-18T06:31:21;107.53;;;42.05;;
23670;SDS011;12012;51.998;7.614;2022-12-18T06:33:47;78.90;;;33.40;;
23670;SDS011;12012;51.998;7.614;2022-12-18T06:36:13;69.13;;;29.10;;
23670;SDS011;12012;51.998;7.614;2022-12-18T06:38:39;67.80;;;28.38;;
23670;SDS011;12012;51.998;7.614;2022-12-18T06:41:10;62.50;;;26.25;;
23670;SDS011;12012;51.998;7.614;2022-12-18T06:43:37;58.05;;;26.90;;
23670;SDS011;12012;51.998;7.614;2022-12-18T06:46:03;55.30;;;25.92;;
23670;SDS011;12012;51.998;7.614;2022-12-18T06:48:29;55.88;;;23.98;;
23670;SDS011;12012;51.998;7.614;2022-12-18T06:50:56;54.00;;;24.50;;
23670;SDS011;12012;51.998;7.614;2022-12-18T06:53:21;50.55;;;24.33;;
23670;SDS011;12012;51.998;7.614;2022-12-18T06:55:47;57.33;;;25.73;;
23670;SDS011;12012;51.998;7.614;2022-12-18T06:58:13;61.42;;;25.60;;
23670;SDS011;12012;51.998;7.614;2022-12-18T07:00:38;63.40;;;26.77;;
23670;SDS011;12012;51.998;7.614;2022-12-18T07:03:04;58.63;;;23.88;;
23670;SDS011;12012;51.998;7.614;2022-12-18T07:05:29;61.95;;;24.80;;
23670;SDS011;12012;51.998;7.614;2022-12-18T07:07:55;72.18;;;29.73;;
23670;SDS011;12012;51.998;7.614;2022-12-18T07:10:21;72.45;;;30.33;;
23670;SDS011;12012;51.998;7.614;2022-12-18T07:12:46;68.53;;;27.83;;
23670;SDS011;12012;51.998;7.614;2022-12-18T07:15:12;71.10;;;28.35;;
23670;SDS011;12012;51.998;7.614;2022-12-18T07:17:37;55.00;;;26.38;;
23670;SDS011;12012;51.998;7.614;2022-12-18T07:20:03;63.70;;;27.92;;
23670;SDS011;12012;51.998;7.614;2022-12-18T07:22:29;53.20;;;26.67;;
23670;SDS011;12012;51.998;7.614;2022-12-18T07:24:55;57.35;;;26.70;;
23670;SDS011;12012;51.998;7.614;2022-12-18T07:27:20;55.92;;;26.25;;
23670;SDS011;12012;51.998;7.614;2022-12-18T07:29:46;64.22;;;26.88;;
23670;SDS011;12012;51.998;7.614;2022-12-18T07:32:11;50.78;;;24.63;;
23670;SDS011;12012;51.998;7.614;2022-12-18T07:34:37;55.63;;;25.67;;
23670;SDS011;12012;51.998;7.614;2022-12-18T07:37:03;59.22;;;24.83;;
23670;SDS011;12012;51.998;7.614;2022-12-18T07:39:28;55.58;;;24.70;;
23670;SDS011;12012;51.998;7.614;2022-12-18T07:41:54;52.83;;;25.02;;
23670;SDS011;12012;51.998;7.614;2022-12-18T07:44:38;50.13;;;24.42;;
23670;SDS011;12012;51.998;7.614;2022-12-18T07:47:04;58.17;;;24.95;;
23670;SDS011;12012;51.998;7.614;2022-12-18T07:49:29;58.67;;;26.85;;
23670;SDS011;12012;51.998;7.614;2022-12-18T07:51:55;47.88;;;22.80;;
23670;SDS011;12012;51.998;7.614;2022-12-18T07:54:22;56.05;;;24.80;;
23670;SDS011;12012;51.998;7.614;2022-12-18T07:56:48;62.05;;;25.27;;
23670;SDS011;12012;51.998;7.614;2022-12-18T07:59:14;65.55;;;28.25;;
23670;SDS011;12012;51.998;7.614;2022-12-18T08:01:39;66.35;;;28.13;;
23670;SDS011;12012;51.998;7.614;2022-12-18T08:04:05;65.88;;;25.65;;
23670;SDS011;12012;51.998;7.614;2022-12-18T08:06:31;53.55;;;24.58;;
23670;SDS011;12012;51.998;7.614;2022-12-18T08:08:56;54.67;;;25.08;;
23670;SDS011;12012;51.998;7.614;2022-12-18T08:11:23;54.60;;;23.52;;
23670;SDS011;12012;51.998;7.614;2022-12-18T08:13:49;47.75;;;21.35;;
23670;SDS011;12012;51.998;7.614;2022-12-18T08:16:15;49.20;;;23.13;;
23670;SDS011;12012;51.998;7.614;2022-12-18T08:18:41;49.47;;;21.55;;
23670;SDS011;12012;51.998;7.614;2022-12-18T08:21:11;45.83;;;21.52;;
23670;SDS011;12012;51.998;7.614;2022-12-18T08:23:39;50.78;;;22.42;;
23670;SDS011;12012;51.998;7.614;2022-12-18T08:26:05;46.63;;;22.58;;
23670;SDS011;12012;51.998;7.614;2022-12-18T08:28:31;49.30;;;23.20;;
23670;SDS011;12012;51.998;7.614;2022-12-18T08:30:56;40.72;;;21.20;;
23670;SDS011;12012;51.998;7.614;2022-12-18T08:33:22;50.00;;;21.40;;
23670;SDS011;12012;51.998;7.614;2022-12-18T08:35:48;62.90;;;24.63;;
23670;SDS011;12012;51.998;7.614;2022-12-18T08:38:14;56.97;;;23.02;;
23670;SDS011;12012;51.998;7.614;2022-12-18T08:40:39;62.90;;;25.42;;
23670;SDS011;12012;51.998;7.614;2022-12-18T08:43:05;62.03;;;26.98;;
23670;SDS011;12012;51.998;7.614;2022-12-18T08:45:50;71.97;;;26.85;;
23670;SDS011;12012;51.998;7.614;2022-12-18T08:48:16;64.93;;;25.42;;
23670;SDS011;12012;51.998;7.614;2022-12-18T08:50:42;67.88;;;27.25;;
23670;SDS011;12012;51.998;7.614;2022-12-18T08:53:07;62.30;;;24.67;;
23670;SDS011;12012;51.998;7.614;2022-12-18T08:55:33;52.45;;;21.30;;
23670;SDS011;12012;51.998;7.614;2022-12-18T08:57:58;50.50;;;21.63;;
23670;SDS011;12012;51.998;7.614;2022-12-18T09:00:24;43.83;;;19.85;;
23670;SDS011;12012;51.998;7.614;2022-12-18T09:02:49;41.25;;;19.63;;
23670;SDS011;12012;51.998;7.614;2022-12-18T09:05:15;44.78;;;19.48;;
23670;SDS011;12012;51.998;7.614;2022-12-18T09:07:40;37.42;;;18.42;;
23670;SDS011;12012;51.998;7.614;2022-12-18T09:10:06;40.70;;;21.08;;
23670;SDS011;12012;51.998;7.614;2022-12-18T09:12:32;48.83;;;24.17;;
23670;SDS011;12012;51.998;7.614;2022-12-18T09:14:57;44.70;;;21.95;;
23670;SDS011;12012;51.998;7.614;2022-12-18T09:17:23;41.83;;;21.10;;
23670;SDS011;12012;51.998;7.614;2022-12-18T09:19:48;37.17;;;18.35;;
23670;SDS011;12012;51.998;7.614;2022-12-18T09:22:14;35.53;;;17.70;;
23670;SDS011;12012;51.998;7.614;2022-12-18T09:24:40;32.75;;;17.92;;
23670;SDS011;12012;51.998;7.614;2022-12-18T09:27:05;31.63;;;15.95;;
23670;SDS011;12012;51.998;7.614;2022-12-18T09:29:31;29.23;;;15.35;;
23670;SDS011;12012;51.998;7.614;2022-12-18T09:31:57;33.17;;;15.85;;
23670;SDS011;12012;51.998;7.614;2022-12-18T09:34:23;30.60;;;17.10;;
23670;SDS011;12012;51.998;7.614;2022-12-18T09:36:48;28.38;;;15.60;;
23670;SDS011;12012;51.998;7.614;2022-12-18T09:39:14;33.30;;;16.90;;
23670;SDS011;12012;51.998;7.614;2022-12-18T09:44:18;30.25;;;16.52;;
23670;SDS011;12012;51.998;7.614;2022-12-18T09:49:39;24.52;;;13.98;;
23670;SDS011;12012;51.998;7.614;2022-12-18T09:52:09;29.25;;;15.30;;
23670;SDS011;12012;51.998;7.614;2022-12-18T09:54:44;33.00;;;14.52;;
23670;SDS011;12012;51.998;7.614;2022-12-18T09:57:18;25.73;;;14.10;;
23670;SDS011;12012;51.998;7.614;2022-12-18T09:59:51;27.25;;;14.65;;
23670;SDS011;12012;51.998;7.614;2022-12-18T10:02:22;25.52;;;14.27;;
23670;SDS011;12012;51.998;7.614;2022-12-18T10:05:10;27.85;;;13.93;;
23670;SDS011;12012;51.998;7.614;2022-12-18T10:10:10;27.00;;;12.70;;
23670;SDS011;12012;51.998;7.614;2022-12-18T10:12:56;28.05;;;14.43;;
23670;SDS011;12012;51.998;7.614;2022-12-18T10:21:20;23.88;;;13.63;;
23670;SDS011;12012;51.998;7.614;2022-12-18T10:24:02;22.92;;;12.93;;
23670;SDS011;12012;51.998;7.614;2022-12-18T10:26:31;20.75;;;12.38;;
23670;SDS011;12012;51.998;7.614;2022-12-18T10:28:57;26.33;;;13.48;;
23670;SDS011;12012;51.998;7.614;2022-12-18T10:31:24;25.13;;;14.90;;
23670;SDS011;12012;51.998;7.614;2022-12-18T10:33:49;22.85;;;13.77;;
23670;SDS011;12012;51.998;7.614;2022-12-18T10:36:15;21.55;;;12.32;;
23670;SDS011;12012;51.998;7.614;2022-12-18T10:38:41;24.52;;;13.85;;
23670;SDS011;12012;51.998;7.614;2022-12-18T10:41:23;21.85;;;13.13;;
23670;SDS011;12012;51.998;7.614;2022-12-18T10:46:37;21.48;;;12.30;;
23670;SDS011;12012;51.998;7.614;2022-12-18T10:49:02;20.27;;;11.95;;
23670;SDS011;12012;51.998;7.614;2022-12-18T10:51:30;19.38;;;11.35;;
23670;SDS011;12012;51.998;7.614;2022-12-18T10:54:01;21.17;;;11.80;;
23670;SDS011;12012;51.998;7.614;2022-12-18T10:56:30;18.50;;;11.38;;
23670;SDS011;12012;51.998;7.614;2022-12-18T10:59:03;20.45;;;11.60;;
23670;SDS011;12012;51.998;7.614;2022-12-18T11:01:44;22.30;;;13.00;;
23670;SDS011;12012;51.998;7.614;2022-12-18T11:04:18;18.63;;;11.90;;
23670;SDS011;12012;51.998;7.614;2022-12-18T11:06:58;20.27;;;12.55;;
23670;SDS011;12012;51.998;7.614;2022-12-18T11:09:25;18.42;;;12.05;;
23670;SDS011;12012;51.998;7.614;2022-12-18T11:11:53;19.95;;;12.50;;
23670;SDS011;12012;51.998;7.614;2022-12-18T11:16:48;18.92;;;11.23;;
23670;SDS011;12012;51.998;7.614;2022-12-18T11:22:17;18.15;;;11.00;;
23670;SDS011;12012;51.998;7.614;2022-12-18T11:24:52;19.45;;;12.05;;
23670;SDS011;12012;51.998;7.614;2022-12-18T11:27:21;20.65;;;11.07;;
23670;SDS011;12012;51.998;7.614;2022-12-18T11:29:47;16.98;;;10.65;;
23670;SDS011;12012;51.998;7.614;2022-12-18T11:32:21;19.13;;;12.43;;
23670;SDS011;12012;51.998;7.614;2022-12-18T11:35:00;22.42;;;16.27;;
23670;SDS011;12012;51.998;7.614;2022-12-18T11:37:43;25.67;;;17.50;;
23670;SDS011;12012;51.998;7.614;2022-12-18T11:40:14;22.75;;;15.50;;
23670;SDS011;12012;51.998;7.614;2022-12-18T11:42:45;19.60;;;13.13;;
23670;SDS011;12012;51.998;7.614;2022-12-18T11:48:02;49.67;;;21.63;;
23670;SDS011;12012;51.998;7.614;2022-12-18T11:50:44;25.90;;;14.15;;
23670;SDS011;12012;51.998;7.614;2022-12-18T11:53:22;21.00;;;12.88;;
23670;SDS011;12012;51.998;7.614;2022-12-18T11:56:36;20.65;;;13.68;;
23670;SDS011;12012;51.998;7.614;2022-12-18T11:58:51;24.75;;;14.18;;
23670;SDS011;12012;51.998;7.614;2022-12-18T12:15:24;26.15;;;14.82;;
23670;SDS011;12012;51.998;7.614;2022-12-18T12:23:40;21.58;;;13.48;;
23670;SDS011;12012;51.998;7.614;2022-12-18T12:26:30;23.08;;;14.18;;
23670;SDS011;12012;51.998;7.614;2022-12-18T12:31:57;30.25;;;17.55;;
23670;SDS011;12012;51.998;7.614;2022-12-18T12:37:11;20.48;;;12.43;;
23670;SDS011;12012;51.998;7.614;2022-12-18T12:39:59;50.25;;;26.85;;
23670;SDS011;12012;51.998;7.614;2022-12-18T12:42:40;41.10;;;20.25;;
23670;SDS011;12012;51.998;7.614;2022-12-18T12:45:36;36.15;;;19.55;;
23670;SDS011;12012;51.998;7.614;2022-12-18T12:48:06;32.67;;;19.10;;
23670;SDS011;12012;51.998;7.614;2022-12-18T12:50:40;27.20;;;16.85;;
23670;SDS011;12012;51.998;7.614;2022-12-18T12:53:07;30.55;;;17.25;;
23670;SDS011;12012;51.998;7.614;2022-12-18T12:55:39;43.55;;;20.52;;
23670;SDS011;12012;51.998;7.614;2022-12-18T13:06:23;72.85;;;29.88;;
23670;SDS011;12012;51.998;7.614;2022-12-18T13:08:58;66.93;;;26.27;;
23670;SDS011;12012;51.998;7.614;2022-12-18T13:14:24;48.53;;;20.75;;
23670;SDS011;12012;51.998;7.614;2022-12-18T13:17:13;41.90;;;18.08;;
23670;SDS011;12012;51.998;7.614;2022-12-18T13:20:11;27.42;;;15.70;;
23670;SDS011;12012;51.998;7.614;2022-12-18T13:22:45;34.67;;;16.17;;
23670;SDS011;12012;51.998;7.614;2022-12-18T13:25:55;30.95;;;14.65;;
23670;SDS011;12012;51.998;7.614;2022-12-18T13:30:52;30.63;;;15.70;;
23670;SDS011;12012;51.998;7.614;2022-12-18T13:36:28;26.95;;;13.75;;
23670;SDS011;12012;51.998;7.614;2022-12-18T13:44:38;25.02;;;13.27;;
23670;SDS011;12012;51.998;7.614;2022-12-18T13:47:05;23.05;;;13.85;;
23670;SDS011;12012;51.998;7.614;2022-12-18T13:49:49;25.98;;;13.98;;
23670;SDS011;12012;51.998;7.614;2022-12-18T13:52:20;23.48;;;13.90;;
23670;SDS011;12012;51.998;7.614;2022-12-18T13:54:50;23.52;;;12.88;;
23670;SDS011;12012;51.998;7.614;2022-12-18T13:57:27;20.35;;;12.23;;
23670;SDS011;12012;51.998;7.614;2022-12-18T13:59:53;23.15;;;13.32;;
23670;SDS011;12012;51.998;7.614;2022-12-18T14:02:22;21.45;;;12.95;;
23670;SDS011;12012;51.998;7.614;2022-12-18T14:04:52;23.58;;;13.60;;
23670;SDS011;12012;51.998;7.614;2022-12-18T14:10:00;20.35;;;11.73;;
23670;SDS011;12012;51.998;7.614;2022-12-18T14:12:27;22.48;;;12.73;;
23670;SDS011;12012;51.998;7.614;2022-12-18T14:17:44;21.13;;;12.02;;
23670;SDS011;12012;51.998;7.614;2022-12-18T14:20:13;25.65;;;12.02;;
23670;SDS011;12012;51.998;7.614;2022-12-18T14:22:42;23.10;;;11.98;;
23670;SDS011;12012;51.998;7.614;2022-12-18T14:25:21;20.10;;;11.50;;
23670;SDS011;12012;51.998;7.614;2022-12-18T14:28:03;19.92;;;11.90;;
23670;SDS011;12012;51.998;7.614;2022-12-18T14:30:37;19.33;;;12.38;;
23670;SDS011;12012;51.998;7.614;2022-12-18T14:33:05;29.38;;;15.15;;
23670;SDS011;12012;51.998;7.614;2022-12-18T14:35:35;23.35;;;14.18;;
23670;SDS011;12012;51.998;7.614;2022-12-18T14:41:14;35.45;;;16.65;;
23670;SDS011;12012;51.998;7.614;2022-12-18T14:43:42;54.65;;;24.15;;
23670;SDS011;12012;51.998;7.614;2022-12-18T14:49:28;29.55;;;15.68;;
23670;SDS011;12012;51.998;7.614;2022-12-18T14:51:57;24.05;;;14.48;;
23670;SDS011;12012;51.998;7.614;2022-12-18T14:54:28;32.60;;;15.40;;
23670;SDS011;12012;51.998;7.614;2022-12-18T14:57:02;62.60;;;25.67;;
23670;SDS011;12012;51.998;7.614;2022-12-18T14:59:30;48.10;;;21.80;;
23670;SDS011;12012;51.998;7.614;2022-12-18T15:02:01;40.47;;;16.88;;
23670;SDS011;12012;51.998;7.614;2022-12-18T15:04:35;34.92;;;16.20;;
23670;SDS011;12012;51.998;7.614;2022-12-18T15:07:05;33.72;;;16.80;;
23670;SDS011;12012;51.998;7.614;2022-12-18T15:09:36;50.50;;;23.30;;
23670;SDS011;12012;51.998;7.614;2022-12-18T15:12:03;34.42;;;17.33;;
23670;SDS011;12012;51.998;7.614;2022-12-18T15:17:01;28.00;;;14.05;;
23670;SDS011;12012;51.998;7.614;2022-12-18T15:19:40;28.85;;;14.13;;
23670;SDS011;12012;51.998;7.614;2022-12-18T15:22:26;46.75;;;22.98;;
23670;SDS011;12012;51.998;7.614;2022-12-18T15:24:54;63.72;;;27.00;;
23670;SDS011;12012;51.998;7.614;2022-12-18T15:27:22;33.30;;;17.17;;
23670;SDS011;12012;51.998;7.614;2022-12-18T15:30:00;23.20;;;13.88;;
23670;SDS011;12012;51.998;7.614;2022-12-18T15:32:32;22.23;;;12.45;;
23670;SDS011;12012;51.998;7.614;2022-12-18T15:35:41;22.08;;;12.50;;
23670;SDS011;12012;51.998;7.614;2022-12-18T15:37:48;39.25;;;18.48;;
23670;SDS011;12012;51.998;7.614;2022-12-18T15:40:19;40.28;;;19.20;;
23670;SDS011;12012;51.998;7.614;2022-12-18T15:42:48;29.92;;;16.48;;
23670;SDS011;12012;51.998;7.614;2022-12-18T15:45:36;23.88;;;12.07;;
23670;SDS011;12012;51.998;7.614;2022-12-18T15:48:10;18.80;;;11.52;;
23670;SDS011;12012;51.998;7.614;2022-12-18T15:50:44;21.42;;;11.68;;
23670;SDS011;12012;51.998;7.614;2022-12-18T15:53:09;19.95;;;11.20;;
23670;SDS011;12012;51.998;7.614;2022-12-18T15:55:35;24.23;;;13.38;;
23670;SDS011;12012;51.998;7.614;2022-12-18T15:58:19;20.73;;;11.70;;
23670;SDS011;12012;51.998;7.614;2022-12-18T16:00:45;20.50;;;10.90;;
23670;SDS011;12012;51.998;7.614;2022-12-18T16:03:11;19.27;;;11.20;;
23670;SDS011;12012;51.998;7.614;2022-12-18T16:05:36;23.95;;;11.68;;
23670;SDS011;12012;51.998;7.614;2022-12-18T16:08:02;24.02;;;12.98;;
23670;SDS011;12012;51.998;7.614;2022-12-18T16:10:28;17.08;;;10.45;;
23670;SDS011;12012;51.998;7.614;2022-12-18T16:12:54;18.85;;;9.88;;
23670;SDS011;12012;51.998;7.614;2022-12-18T16:15:19;17.73;;;10.75;;
23670;SDS011;12012;51.998;7.614;2022-12-18T16:17:45;18.65;;;11.00;;
23670;SDS011;12012;51.998;7.614;2022-12-18T16:20:13;18.42;;;11.02;;
23670;SDS011;12012;51.998;7.614;2022-12-18T16:22:40;24.85;;;11.40;;
23670;SDS011;12012;51.998;7.614;2022-12-18T16:25:10;21.42;;;11.23;;
23670;SDS011;12012;51.998;7.614;2022-12-18T16:27:51;17.83;;;11.02;;
23670;SDS011;12012;51.998;7.614;2022-12-18T16:30:21;18.77;;;10.30;;
23670;SDS011;12012;51.998;7.614;2022-12-18T16:32:49;18.77;;;9.23;;
23670;SDS011;12012;51.998;7.614;2022-12-18T16:35:15;19.65;;;10.70;;
23670;SDS011;12012;51.998;7.614;2022-12-18T16:37:42;19.42;;;9.93;;
23670;SDS011;12012;51.998;7.614;2022-12-18T16:40:09;18.05;;;9.38;;
23670;SDS011;12012;51.998;7.614;2022-12-18T16:42:38;15.02;;;8.55;;